createdAt,value
2022-09-14T00:00:09.412Z,87.81
2022-09-14T00:02:42.462Z,88.12
2022-09-14T00:05:15.199Z,88.92
2022-09-14T00:07:53.229Z,88.95
2022-09-14T00:10:25.946Z,89.02
2022-09-14T00:13:00.222Z,89.13
2022-09-14T00:15:36.037Z,89.84
2022-09-14T00:18:11.435Z,89.62
2022-09-14T00:20:48.137Z,89.70
2022-09-14T00:23:24.996Z,89.31
2022-09-14T00:26:06.221Z,89.39
2022-09-14T00:28:43.885Z,89.32
2022-09-14T00:31:18.252Z,89.26
2022-09-14T00:33:52.461Z,89.05
2022-09-14T00:36:29.261Z,89.33
2022-09-14T00:39:02.989Z,89.95
2022-09-14T00:41:38.060Z,90.07
2022-09-14T00:44:10.523Z,89.86
2022-09-14T00:46:46.974Z,90.34
2022-09-14T00:49:27.688Z,90.33
2022-09-14T00:52:08.913Z,89.91
2022-09-14T00:54:44.690Z,90.55
2022-09-14T00:57:18.766Z,90.44
2022-09-14T00:59:55.334Z,90.48
2022-09-14T01:02:28.657Z,90.70
2022-09-14T01:05:01.791Z,91.12
2022-09-14T01:08:29.313Z,91.08
2022-09-14T01:11:13.818Z,91.51
2022-09-14T01:14:04.291Z,90.87
2022-09-14T01:16:47.948Z,91.22
2022-09-14T01:19:52.291Z,91.72
2022-09-14T01:22:36.486Z,91.29
2022-09-14T01:25:32.806Z,91.28
2022-09-14T01:28:15.103Z,91.88
2022-09-14T01:30:50.871Z,91.58
2022-09-14T01:33:38.105Z,91.63
2022-09-14T01:36:16.499Z,91.50
2022-09-14T01:38:52.641Z,90.96
2022-09-14T01:41:30.293Z,91.20
2022-09-14T01:44:15.097Z,91.54
2022-09-14T01:46:55.285Z,91.43
2022-09-14T01:49:40.193Z,91.09
2022-09-14T01:52:24.163Z,91.22
2022-09-14T01:55:34.022Z,91.11
2022-09-14T01:58:16.460Z,90.61
2022-09-14T02:00:52.091Z,90.58
2022-09-14T02:03:29.790Z,90.60
2022-09-14T02:06:12.608Z,90.54
2022-09-14T02:08:48.684Z,90.51
2022-09-14T02:11:23.378Z,90.45
2022-09-14T02:13:56.062Z,90.23
2022-09-14T02:16:31.282Z,90.18
2022-09-14T02:19:07.388Z,90.08
2022-09-14T02:21:42.623Z,89.71
2022-09-14T02:24:20.389Z,90.31
2022-09-14T02:26:57.027Z,90.36
2022-09-14T02:29:32.290Z,90.59
2022-09-14T02:32:12.492Z,90.78
2022-09-14T02:35:09.064Z,90.37
2022-09-14T02:38:07.308Z,90.74
2022-09-14T02:41:05.787Z,90.54
2022-09-14T02:43:56.005Z,89.94
2022-09-14T02:46:34.065Z,89.71
2022-09-14T02:49:15.997Z,89.91
2022-09-14T02:52:02.534Z,89.44
2022-09-14T02:54:51.453Z,89.65
2022-09-14T02:57:28.257Z,90.46
2022-09-14T03:00:03.134Z,90.63
2022-09-14T03:02:39.813Z,90.23
2022-09-14T03:05:12.847Z,90.43
2022-09-14T03:07:45.340Z,90.73
2022-09-14T03:10:18.205Z,90.52
2022-09-14T03:12:50.882Z,90.64
2022-09-14T03:15:26.288Z,90.96
2022-09-14T03:17:58.727Z,90.85
2022-09-14T03:20:34.803Z,90.79
2022-09-14T03:23:09.163Z,90.71
2022-09-14T03:25:45.892Z,90.99
2022-09-14T03:28:18.486Z,90.78
2022-09-14T03:30:51.001Z,90.64
2022-09-14T03:33:25.790Z,90.66
2022-09-14T03:35:58.509Z,90.54
2022-09-14T03:38:33.845Z,90.12
2022-09-14T03:41:10.180Z,90.49
2022-09-14T03:43:44.172Z,90.68
2022-09-14T03:46:23.513Z,90.94
2022-09-14T03:48:56.555Z,91.42
2022-09-14T03:51:37.617Z,91.49
2022-09-14T03:54:10.194Z,91.21
2022-09-14T03:56:45.212Z,91.45
2022-09-14T03:59:24.950Z,91.55
2022-09-14T04:01:58.915Z,91.58
2022-09-14T04:04:57.882Z,91.91
2022-09-14T04:07:35.107Z,91.04
2022-09-14T04:10:08.550Z,91.19
2022-09-14T04:12:41.065Z,91.53
2022-09-14T04:15:13.761Z,91.31
2022-09-14T04:17:46.354Z,90.88
2022-09-14T04:20:20.247Z,91.18
2022-09-14T04:22:55.324Z,91.31
2022-09-14T04:25:30.145Z,91.08
2022-09-14T04:28:19.759Z,91.41
2022-09-14T04:31:03.902Z,90.78
2022-09-14T04:33:39.431Z,90.66
2022-09-14T04:36:16.213Z,91.08
2022-09-14T04:38:54.967Z,91.14
2022-09-14T04:41:30.257Z,91.12
2022-09-14T04:44:02.907Z,91.25
2022-09-14T04:46:42.124Z,91.21
2022-09-14T04:49:24.034Z,91.46
2022-09-14T04:51:59.303Z,90.94
2022-09-14T04:54:35.500Z,90.97
2022-09-14T04:57:14.615Z,90.53
2022-09-14T04:59:53.130Z,90.69
2022-09-14T05:02:29.047Z,90.41
2022-09-14T05:05:12.521Z,90.56
2022-09-14T05:07:54.046Z,90.72
2022-09-14T05:10:35.468Z,90.89
2022-09-14T05:13:10.613Z,91.06
2022-09-14T05:15:45.781Z,90.83
2022-09-14T05:21:26.581Z,91.18
2022-09-14T05:24:08.856Z,90.82
2022-09-14T05:26:48.344Z,90.92
2022-09-14T05:29:38.285Z,90.98
2022-09-14T05:32:25.008Z,90.96
2022-09-14T05:35:05.550Z,90.51
2022-09-14T05:37:47.901Z,91.06
2022-09-14T05:40:30.190Z,90.69
2022-09-14T05:43:03.166Z,90.70
2022-09-14T05:46:05.341Z,90.74
2022-09-14T05:48:41.619Z,91.04
2022-09-14T05:51:29.531Z,90.78
2022-09-14T06:02:04.138Z,91.65
2022-09-14T06:04:39.585Z,91.59
2022-09-14T06:07:18.696Z,91.16
2022-09-14T06:09:51.757Z,91.50
2022-09-14T06:12:27.040Z,91.35
2022-09-14T06:14:59.578Z,91.76
2022-09-14T06:17:32.256Z,91.29
2022-09-14T06:20:09.299Z,90.98
2022-09-14T06:22:44.683Z,91.52
2022-09-14T06:25:17.731Z,90.85
2022-09-14T06:27:54.196Z,91.73
2022-09-14T06:30:27.809Z,92.25
2022-09-14T06:33:00.576Z,92.15
2022-09-14T06:35:33.114Z,92.32
2022-09-14T06:38:08.430Z,92.21
2022-09-14T06:40:52.090Z,92.56
2022-09-14T06:43:26.354Z,92.65
2022-09-14T06:46:04.783Z,92.56
2022-09-14T06:48:39.877Z,92.20
2022-09-14T06:51:15.549Z,92.43
2022-09-14T06:53:48.524Z,92.38
2022-09-14T06:56:21.697Z,92.32
2022-09-14T06:58:54.438Z,92.07
2022-09-14T07:01:27.676Z,92.59
2022-09-14T07:04:01.663Z,92.60
2022-09-14T07:06:43.464Z,92.43
2022-09-14T07:09:18.427Z,92.54
2022-09-14T07:11:51.061Z,92.70
2022-09-14T07:14:23.684Z,92.73
2022-09-14T07:16:56.254Z,92.19
2022-09-14T07:19:28.793Z,92.88
2022-09-14T07:22:01.988Z,92.76
2022-09-14T07:24:34.538Z,93.00
2022-09-14T07:27:07.021Z,92.81
2022-09-14T07:29:39.658Z,92.82
2022-09-14T07:32:12.125Z,93.04
2022-09-14T07:34:44.572Z,92.82
2022-09-14T07:37:16.969Z,92.74
2022-09-14T07:39:49.504Z,92.75
2022-09-14T07:42:21.930Z,92.92
2022-09-14T07:44:54.641Z,92.78
2022-09-14T07:47:27.030Z,92.09
2022-09-14T07:49:59.416Z,91.85
2022-09-14T07:52:35.566Z,92.20
2022-09-14T07:55:12.509Z,91.64
2022-09-14T07:57:56.050Z,91.53
2022-09-14T08:00:29.257Z,91.84
2022-09-14T08:03:01.852Z,91.80
2022-09-14T08:05:34.258Z,91.40
2022-09-14T08:08:06.676Z,91.07
2022-09-14T08:10:39.108Z,91.39
2022-09-14T08:13:12.136Z,91.18
2022-09-14T08:15:45.352Z,91.08
2022-09-14T08:18:17.964Z,91.21
2022-09-14T08:20:50.514Z,91.34
2022-09-14T08:23:23.562Z,91.74
2022-09-14T08:25:56.154Z,91.17
2022-09-14T08:28:28.559Z,91.48
2022-09-14T08:31:10.180Z,91.15
2022-09-14T08:33:46.236Z,91.44
2022-09-14T08:36:21.394Z,90.82
2022-09-14T08:38:54.156Z,90.04
2022-09-14T08:41:29.581Z,90.50
2022-09-14T08:44:11.505Z,91.05
2022-09-14T08:46:59.760Z,90.13
2022-09-14T08:49:48.760Z,89.84
2022-09-14T08:52:29.272Z,89.75
2022-09-14T08:55:19.296Z,89.56
2022-09-14T08:58:16.246Z,89.99
2022-09-14T09:01:01.233Z,90.33
2022-09-14T09:03:53.152Z,90.08
2022-09-14T09:07:03.723Z,89.96
2022-09-14T09:09:40.755Z,90.33
2022-09-14T09:12:21.268Z,90.34
2022-09-14T09:14:56.843Z,90.00
2022-09-14T09:17:32.181Z,89.65
2022-09-14T09:20:23.403Z,90.14
2022-09-14T09:23:15.544Z,88.98
2022-09-14T09:26:07.833Z,90.05
2022-09-14T09:28:52.121Z,90.00
2022-09-14T09:31:33.142Z,89.50
2022-09-14T09:34:06.416Z,89.60
2022-09-14T09:36:41.809Z,89.39
2022-09-14T09:39:15.721Z,88.80
2022-09-14T09:41:54.838Z,89.56
2022-09-14T09:44:27.541Z,90.09
2022-09-14T09:47:01.749Z,89.74
2022-09-14T09:49:39.881Z,88.94
2022-09-14T09:52:17.160Z,89.24
2022-09-14T09:54:52.662Z,88.95
2022-09-14T09:57:34.491Z,89.28
2022-09-14T10:00:11.336Z,89.66
2022-09-14T10:02:44.090Z,89.12
2022-09-14T10:05:22.599Z,89.43
2022-09-14T10:08:00.920Z,88.37
2022-09-14T10:10:38.605Z,88.83
2022-09-14T10:13:23.058Z,87.11
2022-09-14T10:16:07.394Z,87.94
2022-09-14T10:18:51.404Z,87.52
2022-09-14T10:21:25.753Z,87.70
2022-09-14T10:24:14.905Z,88.24
2022-09-14T10:26:47.359Z,88.14
2022-09-14T10:29:41.505Z,87.93
2022-09-14T10:32:20.129Z,87.31
2022-09-14T10:34:53.044Z,87.35
2022-09-14T10:37:37.064Z,87.83
2022-09-14T10:40:17.216Z,87.79
2022-09-14T10:43:16.857Z,87.27
2022-09-14T10:45:59.047Z,88.12
2022-09-14T10:48:57.335Z,88.96
2022-09-14T10:51:38.929Z,88.70
2022-09-14T10:54:29.678Z,88.09
2022-09-14T10:57:26.073Z,86.75
2022-09-14T11:00:13.199Z,87.11
2022-09-14T11:03:12.369Z,86.71
2022-09-14T11:06:26.605Z,86.36
2022-09-14T11:09:16.333Z,86.58
2022-09-14T11:11:53.609Z,85.35
2022-09-14T11:14:34.753Z,85.59
2022-09-14T11:17:38.352Z,86.74
2022-09-14T11:20:34.308Z,86.53
2022-09-14T11:23:25.628Z,86.41
2022-09-14T11:26:03.158Z,86.81
2022-09-14T11:28:51.818Z,85.75
2022-09-14T11:31:37.798Z,86.86
2022-09-14T11:34:29.063Z,85.97
2022-09-14T11:37:08.516Z,85.33
2022-09-14T11:40:05.131Z,83.61
2022-09-14T11:42:46.515Z,84.64
2022-09-14T11:45:28.930Z,84.39
2022-09-14T11:48:42.284Z,84.96
2022-09-14T11:51:22.444Z,86.35
2022-09-14T11:53:55.102Z,86.88
2022-09-14T11:56:32.860Z,84.71
2022-09-14T11:59:07.259Z,85.10
2022-09-14T12:01:40.697Z,85.83
2022-09-14T12:04:17.590Z,86.36
2022-09-14T12:06:53.968Z,87.79
2022-09-14T12:09:26.419Z,84.07
2022-09-14T12:11:59.815Z,85.87
2022-09-14T12:14:36.472Z,84.71
2022-09-14T12:17:41.701Z,85.36
2022-09-14T12:20:52.864Z,84.83
2022-09-14T12:23:37.247Z,86.03
2022-09-14T12:26:15.858Z,85.59
2022-09-14T12:28:50.674Z,86.57
2022-09-14T12:31:49.356Z,84.83
2022-09-14T12:34:33.291Z,86.43
2022-09-14T12:37:30.349Z,86.54
2022-09-14T12:40:36.308Z,87.13
2022-09-14T12:43:33.480Z,86.76
2022-09-14T12:46:38.410Z,86.71
2022-09-14T12:49:28.565Z,87.04
2022-09-14T12:52:14.015Z,87.17
2022-09-14T12:55:16.038Z,86.63
2022-09-14T12:58:01.558Z,87.39
2022-09-14T13:00:56.996Z,86.39
2022-09-14T13:03:51.980Z,86.15
2022-09-14T13:06:33.022Z,86.45
2022-09-14T13:09:11.937Z,86.96
2022-09-14T13:11:46.776Z,85.76
2022-09-14T13:14:20.249Z,85.92
2022-09-14T13:16:54.281Z,86.03
2022-09-14T13:19:29.762Z,85.44
2022-09-14T13:22:02.480Z,86.31
2022-09-14T13:24:34.837Z,85.96
2022-09-14T13:27:33.975Z,85.22
2022-09-14T13:30:21.706Z,85.28
2022-09-14T13:32:56.320Z,85.73
2022-09-14T13:35:45.506Z,84.94
2022-09-14T13:38:30.986Z,84.99
2022-09-14T13:41:09.593Z,84.84
2022-09-14T13:43:43.622Z,85.00
2022-09-14T13:46:20.242Z,83.58
2022-09-14T13:48:54.064Z,85.35
2022-09-14T13:51:28.696Z,85.51
2022-09-14T13:54:19.663Z,83.47
2022-09-14T13:57:13.056Z,83.81
2022-09-14T14:00:26.296Z,85.55
2022-09-14T14:03:04.408Z,84.64
2022-09-14T14:05:42.565Z,85.28
2022-09-14T14:08:35.403Z,85.64
2022-09-14T14:11:08.771Z,86.19
2022-09-14T14:13:41.314Z,85.99
2022-09-14T14:16:18.513Z,86.43
2022-09-14T14:18:55.445Z,86.69
2022-09-14T14:21:31.034Z,86.77
2022-09-14T14:24:21.932Z,86.73
2022-09-14T14:26:57.336Z,87.24
2022-09-14T14:29:29.742Z,87.62
2022-09-14T14:32:02.523Z,88.95
2022-09-14T14:34:34.944Z,88.85
2022-09-14T14:37:07.721Z,87.65
2022-09-14T14:39:40.143Z,87.93
2022-09-14T14:42:14.208Z,88.12
2022-09-14T14:44:46.685Z,88.28
2022-09-14T14:47:19.063Z,87.61
2022-09-14T14:49:51.425Z,87.62
2022-09-14T14:52:23.811Z,87.77
2022-09-14T14:54:56.191Z,87.22
2022-09-14T14:57:28.865Z,87.09
2022-09-14T15:00:01.421Z,86.82
2022-09-14T15:02:33.796Z,86.18
2022-09-14T15:05:06.866Z,85.68
2022-09-14T15:07:39.752Z,86.86
2022-09-14T15:10:15.477Z,86.77
2022-09-14T15:12:48.096Z,86.34
2022-09-14T15:15:23.930Z,85.30
2022-09-14T15:17:56.322Z,86.19
2022-09-14T15:20:28.790Z,86.75
2022-09-14T15:23:01.296Z,86.21
2022-09-14T15:25:33.750Z,86.16
2022-09-14T15:28:06.224Z,87.04
2022-09-14T15:30:38.656Z,87.59
2022-09-14T15:33:11.258Z,86.88
2022-09-14T15:35:43.673Z,87.07
2022-09-14T15:38:16.050Z,86.68
2022-09-14T15:40:48.620Z,86.65
2022-09-14T15:43:21.156Z,86.65
2022-09-14T15:45:53.642Z,85.93
2022-09-14T15:48:26.157Z,84.83
2022-09-14T15:51:00.628Z,85.12
2022-09-14T15:53:33.034Z,84.89
2022-09-14T15:56:13.817Z,84.05
2022-09-14T15:58:48.960Z,83.74
2022-09-14T16:01:21.601Z,84.21
2022-09-14T16:04:01.699Z,84.67
2022-09-14T16:06:34.660Z,84.89
2022-09-14T16:09:12.180Z,84.92
2022-09-14T16:11:44.739Z,84.34
2022-09-14T16:14:17.305Z,83.94
2022-09-14T16:16:49.989Z,83.44
2022-09-14T16:19:22.581Z,84.45
2022-09-14T16:21:55.414Z,83.86
2022-09-14T16:24:28.748Z,84.07
2022-09-14T16:27:01.637Z,84.62
2022-09-14T16:29:34.218Z,84.13
2022-09-14T16:32:07.180Z,83.89
2022-09-14T16:34:39.998Z,85.10
2022-09-14T16:37:12.649Z,85.18
2022-09-14T16:39:48.175Z,84.93
2022-09-14T16:42:21.027Z,84.10
2022-09-14T16:44:53.460Z,83.66
2022-09-14T16:47:25.931Z,83.38
2022-09-14T16:49:58.453Z,83.45
2022-09-14T16:52:31.256Z,84.88
2022-09-14T16:55:04.138Z,85.48
2022-09-14T16:57:36.633Z,85.42
2022-09-14T17:00:09.886Z,85.66
2022-09-14T17:02:42.824Z,85.30
2022-09-14T17:05:15.702Z,85.71
2022-09-14T17:07:48.144Z,85.63
2022-09-14T17:10:20.587Z,85.75
2022-09-14T17:12:52.992Z,85.12
2022-09-14T17:15:25.373Z,85.84
2022-09-14T17:17:57.742Z,86.54
2022-09-14T17:20:30.277Z,85.86
2022-09-14T17:23:02.704Z,86.29
2022-09-14T17:25:35.178Z,86.81
2022-09-14T17:28:07.610Z,86.67
2022-09-14T17:30:41.848Z,86.70
2022-09-14T17:33:14.424Z,86.52
2022-09-14T17:35:48.887Z,86.58
2022-09-14T17:38:23.218Z,87.10
2022-09-14T17:41:07.752Z,87.29
2022-09-14T17:43:40.565Z,87.56
2022-09-14T17:46:15.878Z,87.41
2022-09-14T17:48:49.408Z,87.37
2022-09-14T17:51:25.888Z,87.79
2022-09-14T17:53:59.001Z,87.91
2022-09-14T17:56:32.022Z,88.25
2022-09-14T17:59:11.657Z,88.21
2022-09-14T18:01:44.153Z,87.91
2022-09-14T18:04:17.430Z,88.12
2022-09-14T18:06:50.173Z,88.49
2022-09-14T18:09:29.250Z,88.74
2022-09-14T18:12:01.847Z,89.10
2022-09-14T18:14:34.246Z,89.80
2022-09-14T18:17:06.978Z,90.20
2022-09-14T18:19:39.960Z,90.29
2022-09-14T18:22:12.562Z,90.98
2022-09-14T18:24:45.070Z,91.17
2022-09-14T18:27:17.731Z,91.46
2022-09-14T18:29:50.242Z,91.55
2022-09-14T18:32:22.760Z,91.78
2022-09-14T18:34:55.283Z,92.35
2022-09-14T18:37:27.673Z,92.41
2022-09-14T18:40:00.646Z,92.82
2022-09-14T18:42:33.209Z,92.88
2022-09-14T18:45:07.971Z,92.84
2022-09-14T18:47:40.399Z,93.38
2022-09-14T18:50:16.976Z,93.68
2022-09-14T18:52:51.275Z,93.62
2022-09-14T18:55:23.733Z,94.04
2022-09-14T18:57:56.242Z,94.21
2022-09-14T19:00:28.956Z,94.41
2022-09-14T19:03:01.645Z,94.29
2022-09-14T19:05:40.325Z,94.72
2022-09-14T19:08:13.552Z,94.83
2022-09-14T19:10:46.068Z,94.89
2022-09-14T19:13:18.514Z,94.80
2022-09-14T19:15:51.114Z,94.66
2022-09-14T19:18:23.829Z,94.69
2022-09-14T19:21:06.269Z,94.60
2022-09-14T19:23:39.539Z,94.50
2022-09-14T19:26:17.820Z,95.08
2022-09-14T19:28:50.421Z,94.95
2022-09-14T19:31:24.351Z,94.93
2022-09-14T19:34:01.538Z,94.95
2022-09-14T19:36:34.839Z,95.09
2022-09-14T19:39:07.354Z,95.07
2022-09-14T19:41:40.152Z,95.42
2022-09-14T19:44:13.614Z,95.58
2022-09-14T19:46:46.254Z,95.76
2022-09-14T19:49:23.861Z,95.90
2022-09-14T19:51:56.608Z,95.92
2022-09-14T19:54:29.096Z,95.65
2022-09-14T19:57:01.712Z,95.74
2022-09-14T19:59:34.159Z,96.04
2022-09-14T20:02:07.084Z,95.89
2022-09-14T20:04:39.602Z,96.02
2022-09-14T20:07:11.997Z,96.05
2022-09-14T20:09:44.450Z,96.03
2022-09-14T20:12:16.930Z,96.30
2022-09-14T20:14:49.423Z,96.38
2022-09-14T20:17:21.961Z,96.38
2022-09-14T20:19:54.352Z,96.16
2022-09-14T20:22:26.765Z,96.19
2022-09-14T20:24:59.221Z,96.43
2022-09-14T20:27:31.722Z,96.18
2022-09-14T20:30:05.311Z,96.18
2022-09-14T20:32:37.700Z,96.28
2022-09-14T20:35:10.169Z,96.37
2022-09-14T20:37:43.622Z,96.48
2022-09-14T20:40:16.134Z,96.37
2022-09-14T20:42:48.518Z,96.59
2022-09-14T20:45:20.946Z,96.71
2022-09-14T20:47:53.320Z,96.77
2022-09-14T20:50:25.691Z,96.88
2022-09-14T20:52:58.388Z,96.75
2022-09-14T20:55:32.676Z,96.58
2022-09-14T20:58:05.057Z,96.82
2022-09-14T21:00:37.456Z,96.68
2022-09-14T21:03:11.788Z,96.62
2022-09-14T21:05:44.485Z,96.51
2022-09-14T21:08:18.043Z,96.64
2022-09-14T21:10:50.519Z,96.52
2022-09-14T21:13:23.463Z,96.51
2022-09-14T21:15:55.983Z,96.63
2022-09-14T21:18:28.512Z,96.23
2022-09-14T21:21:13.278Z,96.39
2022-09-14T21:23:48.588Z,96.31
2022-09-14T21:26:21.392Z,96.39
2022-09-14T21:28:56.915Z,96.25
2022-09-14T21:31:29.980Z,95.97
2022-09-14T21:34:04.805Z,96.14
2022-09-14T21:36:43.023Z,96.03
2022-09-14T21:39:19.304Z,95.94
2022-09-14T21:41:58.325Z,95.85
2022-09-14T21:44:34.545Z,95.73
2022-09-14T21:47:06.984Z,95.69
2022-09-14T21:49:39.413Z,95.73
2022-09-14T21:52:11.799Z,95.60
2022-09-14T21:54:44.222Z,95.79
2022-09-14T21:57:16.648Z,95.91
2022-09-14T21:59:49.229Z,95.87
2022-09-14T22:02:21.765Z,95.86
2022-09-14T22:04:54.226Z,95.96
2022-09-14T22:07:29.099Z,95.93
2022-09-14T22:10:01.509Z,95.67
2022-09-14T22:12:34.028Z,96.07
2022-09-14T22:15:06.837Z,95.74
2022-09-14T22:17:39.266Z,95.92
2022-09-14T22:20:11.694Z,95.87
2022-09-14T22:22:44.436Z,95.49
2022-09-14T22:25:17.657Z,95.61
2022-09-14T22:27:51.237Z,95.40
2022-09-14T22:30:23.674Z,95.65
2022-09-14T22:32:56.093Z,95.84
2022-09-14T22:35:28.618Z,95.58
2022-09-14T22:38:01.834Z,95.59
2022-09-14T22:40:34.206Z,95.22
2022-09-14T22:43:06.728Z,95.36
2022-09-14T22:45:39.403Z,95.16
2022-09-14T22:48:11.987Z,95.02
2022-09-14T22:50:46.096Z,94.97
2022-09-14T22:53:20.195Z,94.87
2022-09-14T22:55:52.763Z,94.60
2022-09-14T22:58:27.617Z,94.73
2022-09-14T23:01:06.398Z,94.53
2022-09-14T23:03:38.949Z,94.53
2022-09-14T23:06:11.958Z,94.45
2022-09-14T23:08:44.435Z,94.25
2022-09-14T23:11:16.858Z,94.09
2022-09-14T23:13:50.181Z,94.37
2022-09-14T23:16:26.207Z,94.39
2022-09-14T23:19:03.998Z,94.46
2022-09-14T23:21:36.441Z,94.59
2022-09-14T23:24:10.450Z,94.76
2022-09-14T23:26:43.048Z,94.91
2022-09-14T23:29:17.410Z,94.75
2022-09-14T23:31:49.824Z,95.03
2022-09-14T23:34:22.345Z,94.97
2022-09-14T23:36:56.970Z,95.02
2022-09-14T23:39:29.616Z,95.14
2022-09-14T23:42:02.051Z,95.12
2022-09-14T23:44:34.733Z,95.10
2022-09-14T23:47:08.022Z,95.36
2022-09-14T23:49:40.540Z,95.47
2022-09-14T23:52:13.604Z,95.65
2022-09-14T23:54:46.038Z,95.30
2022-09-14T23:57:18.404Z,95.51
2022-09-14T23:59:50.878Z,95.48
